Time;durP1;ratioP1;P1;durP2;ratioP2;P2;SDS_P1;SDS_P2;PMS_P1;PMS_P2;Temp;Humidity;BMP_temperature;BMP_pressure;BME280_temperature;BME280_humidity;BME280_pressure;Samples;Min_cycle;Max_cycle;Signal;HPM_P1;HPM_P2
2022/01/22 00:02:03;;;;;;;17.75;3.45;;;6.20;99.90;;;;;;5073855;28;20529;-84
2022/01/22 00:04:29;;;;;;;18.45;3.67;;;5.40;99.90;;;;;;5092235;28;20043;-83
2022/01/22 00:06:55;;;;;;;19.88;4.20;;;5.40;99.90;;;;;;5096597;28;20039;-83
2022/01/22 00:09:25;;;;;;;27.13;3.90;;;5.50;99.90;;;;;;5085867;28;20036;-83
2022/01/22 00:11:53;;;;;;;16.73;3.40;;;5.80;99.90;;;;;;5044999;28;20045;-88
2022/01/22 00:14:25;;;;;;;24.00;3.70;;;5.50;99.90;;;;;;5023652;28;20032;-83
2022/01/22 00:16:57;;;;;;;21.05;3.90;;;5.50;99.90;;;;;;5039724;28;20044;-87
2022/01/22 00:19:24;;;;;;;24.85;4.13;;;5.80;99.90;;;;;;5056428;28;20040;-83
2022/01/22 00:21:51;;;;;;;25.88;4.20;;;5.90;99.90;;;;;;5056198;28;20141;-89
2022/01/22 00:24:17;;;;;;;13.77;3.83;;;5.50;99.90;;;;;;5056163;28;20417;-83
2022/01/22 00:26:45;;;;;;;21.77;3.90;;;6.40;99.90;;;;;;5056336;28;20037;-83
2022/01/22 00:29:12;;;;;;;24.95;4.60;;;5.50;99.90;;;;;;5022629;28;20131;-83
2022/01/22 00:31:39;;;;;;;21.42;4.65;;;5.60;99.90;;;;;;5023087;28;20052;-83
2022/01/22 00:34:06;;;;;;;12.52;3.58;;;5.80;99.90;;;;;;5039638;28;20048;-83
2022/01/22 00:36:33;;;;;;;23.67;3.92;;;5.60;99.90;;;;;;5056038;28;20036;-84
2022/01/22 00:38:59;;;;;;;19.92;3.88;;;5.60;99.90;;;;;;5054912;28;20135;-85
2022/01/22 00:41:25;;;;;;;18.67;4.18;;;6.00;99.90;;;;;;5038812;28;20123;-84
2022/01/22 00:43:51;;;;;;;25.23;3.75;;;5.50;99.90;;;;;;5039171;28;20032;-84
2022/01/22 00:46:17;;;;;;;13.93;3.45;;;5.60;99.90;;;;;;5055563;28;20055;-84
2022/01/22 00:48:44;;;;;;;18.77;3.38;;;6.00;99.90;;;;;;5058732;28;20035;-84
2022/01/22 00:51:10;;;;;;;17.88;3.42;;;5.60;99.90;;;;;;5075233;28;20458;-84
2022/01/22 00:53:36;;;;;;;20.50;3.78;;;5.70;99.90;;;;;;5075800;28;20071;-85
2022/01/22 00:56:01;;;;;;;19.15;3.75;;;5.70;99.90;;;;;;5059073;28;20426;-83
2022/01/22 00:58:27;;;;;;;25.95;3.88;;;6.10;99.90;;;;;;5075770;28;20066;-83
2022/01/22 01:00:53;;;;;;;16.08;3.67;;;5.70;99.90;;;;;;5059031;28;20044;-85
2022/01/22 01:03:19;;;;;;;13.35;3.15;;;5.80;99.90;;;;;;5058671;28;20058;-83
2022/01/22 01:05:45;;;;;;;14.27;3.53;;;5.70;99.90;;;;;;5075505;28;20475;-83
2022/01/22 01:08:11;;;;;;;17.52;3.40;;;6.20;99.90;;;;;;5058957;28;20065;-83
2022/01/22 01:10:37;;;;;;;17.50;3.65;;;5.70;99.90;;;;;;5075577;28;20607;-83
2022/01/22 01:13:05;;;;;;;11.80;2.95;;;5.70;99.90;;;;;;5059087;28;20082;-83
2022/01/22 01:15:42;;;;;;;15.15;3.10;;;5.70;99.90;;;;;;5035178;28;20041;-87
2022/01/22 01:34:41;;;;;;;20.27;3.75;;;6.10;99.90;;;;;;5060817;28;20051;-83
2022/01/22 01:37:08;;;;;;;17.25;3.17;;;5.80;99.90;;;;;;5058564;28;20432;-83
2022/01/22 01:39:36;;;;;;;20.10;3.78;;;5.80;99.90;;;;;;5075008;28;20044;-83
2022/01/22 01:42:07;;;;;;;19.13;3.30;;;5.80;99.90;;;;;;5058385;28;20036;-83
2022/01/22 01:44:33;;;;;;;17.35;3.50;;;5.80;99.90;;;;;;5075582;28;20051;-83
2022/01/22 01:47:02;;;;;;;18.02;3.58;;;5.80;99.90;;;;;;5075042;28;20036;-86
2022/01/22 01:49:29;;;;;;;17.08;3.42;;;5.80;99.90;;;;;;5076642;28;20043;-83
2022/01/22 01:51:58;;;;;;;13.90;3.88;;;6.10;99.90;;;;;;5079098;28;20048;-84
2022/01/22 01:54:37;;;;;;;20.65;3.50;;;5.80;99.90;;;;;;5078843;28;20040;-83
2022/01/22 01:59:50;;;;;;;17.88;3.28;;;5.80;99.90;;;;;;5064295;28;20143;-83
2022/01/22 02:02:15;;;;;;;13.73;3.05;;;5.80;99.90;;;;;;5041770;28;20043;-83
2022/01/22 02:04:42;;;;;;;17.58;3.13;;;5.90;99.90;;;;;;5058496;28;20040;-83
2022/01/22 02:07:08;;;;;;;19.65;3.40;;;5.80;99.90;;;;;;5041564;28;20044;-83
2022/01/22 02:09:34;;;;;;;;;;;6.10;99.90;;;;;;5069846;28;20094;-83
2022/01/22 02:12:35;;;;;;;13.75;2.70;;;5.80;99.90;;;;;;5078017;28;19916;-87
2022/01/22 02:25:45;;;;;;;10.30;2.88;;;5.90;99.90;;;;;;5077538;28;20529;-83
2022/01/22 02:28:13;;;;;;;14.77;2.63;;;5.90;99.90;;;;;;5057616;28;20040;-84
2022/01/22 02:30:43;;;;;;;16.48;3.17;;;6.30;99.90;;;;;;5040260;28;20052;-85
2022/01/22 02:33:21;;;;;;;13.20;2.70;;;6.10;99.90;;;;;;5057729;28;20479;-84
2022/01/22 02:35:55;;;;;;;15.88;3.03;;;5.90;99.90;;;;;;5057512;28;20106;-84
2022/01/22 02:38:30;;;;;;;13.10;2.80;;;5.90;99.90;;;;;;5058207;28;20108;-84
2022/01/22 02:40:56;;;;;;;17.45;3.65;;;5.90;99.90;;;;;;5074344;28;20044;-83
2022/01/22 02:43:22;;;;;;;14.07;2.90;;;5.90;99.90;;;;;;5077127;28;20289;-83
2022/01/22 02:45:49;;;;;;;16.30;2.90;;;5.90;99.90;;;;;;5037634;28;20041;-83
2022/01/22 02:48:15;;;;;;;9.13;2.45;;;6.00;99.90;;;;;;5048646;28;20048;-84
2022/01/22 02:50:41;;;;;;;14.23;3.40;;;6.20;99.90;;;;;;5061045;28;20488;-83
2022/01/22 02:53:10;;;;;;;11.82;3.28;;;5.90;99.90;;;;;;5060459;28;20039;-83
2022/01/22 02:55:36;;;;;;;16.17;3.35;;;6.00;99.90;;;;;;5076608;28;20044;-85
2022/01/22 02:58:03;;;;;;;;;;;6.00;99.90;;;;;;5057745;28;20036;-86
2022/01/22 03:00:29;;;;;;;17.38;3.00;;;6.20;99.90;;;;;;5061990;28;19970;-83
2022/01/22 03:02:55;;;;;;;;;;;6.00;99.90;;;;;;5040946;28;20071;-82
2022/01/22 03:05:21;;;;;;;17.05;3.20;;;6.00;99.90;;;;;;5023617;28;20358;-83
2022/01/22 03:07:51;;;;;;;;;;;6.30;99.90;;;;;;5038782;28;20048;-84
2022/01/22 03:10:21;;;;;;;13.90;2.47;;;6.40;99.90;;;;;;5076524;28;19923;-83
2022/01/22 03:13:07;;;;;;;13.25;2.70;;;6.10;99.90;;;;;;5059865;28;20385;-83
2022/01/22 03:18:23;;;;;;;12.70;2.55;;;6.00;99.90;;;;;;5076491;28;20044;-84
2022/01/22 03:29:10;;;;;;;19.13;2.55;;;6.00;99.90;;;;;;5042431;28;20078;-83
2022/01/22 03:31:36;;;;;;;13.77;2.70;;;6.00;99.90;;;;;;5039993;28;20048;-83
2022/01/22 03:34:03;;;;;;;9.73;2.20;;;6.00;99.90;;;;;;5047673;28;20425;-83
2022/01/22 03:36:32;;;;;;;9.57;2.00;;;6.00;99.90;;;;;;5059841;28;20036;-83
2022/01/22 03:38:58;;;;;;;20.55;3.03;;;6.40;99.90;;;;;;5060498;28;20040;-85
2022/01/22 03:41:23;;;;;;;9.25;2.10;;;6.00;99.90;;;;;;5076173;28;20036;-83
2022/01/22 03:43:51;;;;;;;6.72;2.28;;;6.20;99.90;;;;;;5043103;28;20097;-83
2022/01/22 03:46:17;;;;;;;10.38;2.15;;;6.00;99.90;;;;;;5075790;28;20434;-83
2022/01/22 03:48:42;;;;;;;7.53;2.03;;;6.00;99.90;;;;;;5059992;28;20040;-83
2022/01/22 03:51:08;;;;;;;10.30;2.30;;;6.00;99.90;;;;;;5059367;28;20101;-84
2022/01/22 03:53:34;;;;;;;9.15;2.10;;;6.00;99.90;;;;;;5075303;28;20047;-83
2022/01/22 03:56:04;;;;;;;6.57;1.88;;;6.10;99.90;;;;;;5063089;28;20543;-83
2022/01/22 03:58:35;;;;;;;11.00;2.03;;;6.20;99.90;;;;;;5043423;28;20056;-83
2022/01/22 04:03:57;;;;;;;13.90;1.98;;;6.40;99.90;;;;;;5061447;28;20078;-84
2022/01/22 04:09:06;;;;;;;8.70;2.20;;;6.00;99.90;;;;;;5075960;28;19982;-83
2022/01/22 04:11:37;;;;;;;7.13;2.00;;;5.90;99.90;;;;;;5043472;28;20047;-83
2022/01/22 04:14:04;;;;;;;9.60;2.13;;;6.10;99.90;;;;;;5074764;28;20044;-84
2022/01/22 04:16:31;;;;;;;6.90;1.80;;;6.00;99.90;;;;;;5075467;28;20048;-83
2022/01/22 04:27:12;;;;;;;7.03;2.00;;;5.90;99.90;;;;;;5055249;28;20078;-88
2022/01/22 04:29:38;;;;;;;10.55;1.90;;;6.00;99.90;;;;;;5054851;28;20052;-83
2022/01/22 04:32:05;;;;;;;9.85;2.33;;;5.90;99.90;;;;;;5056555;28;20051;-83
2022/01/22 04:34:31;;;;;;;8.90;2.35;;;5.90;99.90;;;;;;5075407;28;20043;-83
2022/01/22 04:36:57;;;;;;;10.63;2.60;;;6.40;99.90;;;;;;5075721;28;20044;-83
2022/01/22 04:39:24;;;;;;;9.63;2.20;;;5.90;99.90;;;;;;5058220;28;20036;-83
2022/01/22 04:41:52;;;;;;;9.32;2.10;;;6.00;99.90;;;;;;5075212;28;20044;-83
2022/01/22 04:44:18;;;;;;;10.48;2.22;;;6.10;99.90;;;;;;5057988;28;20048;-85
2022/01/22 04:57:20;;;;;;;5.95;1.70;;;5.90;99.90;;;;;;5060662;28;20044;-82
2022/01/22 04:59:46;;;;;;;5.60;1.73;;;5.90;99.90;;;;;;5074903;28;20061;-83
2022/01/22 05:02:12;;;;;;;9.52;2.10;;;6.40;99.90;;;;;;5074780;28;20043;-88
2022/01/22 05:04:38;;;;;;;9.68;2.17;;;6.00;99.90;;;;;;5075205;28;20057;-83
2022/01/22 05:07:04;;;;;;;13.93;2.30;;;5.90;99.90;;;;;;5058738;28;20363;-83
2022/01/22 05:09:31;;;;;;;6.75;2.03;;;5.90;99.90;;;;;;5058091;28;20044;-85
2022/01/22 05:11:56;;;;;;;;;;;6.00;99.90;;;;;;5058634;28;20092;-83
2022/01/22 05:14:23;;;;;;;10.50;1.90;;;5.90;99.90;;;;;;5043222;28;19920;-83
2022/01/22 05:16:49;;;;;;;7.57;1.92;;;5.90;99.90;;;;;;5062253;28;20510;-84
2022/01/22 05:19:23;;;;;;;6.32;1.88;;;5.90;99.90;;;;;;5038070;28;20497;-83
2022/01/22 05:21:51;;;;;;;10.73;1.80;;;5.90;99.90;;;;;;5054464;28;20711;-83
2022/01/22 05:24:22;;;;;;;12.52;1.85;;;5.90;99.90;;;;;;5037527;28;20147;-84
2022/01/22 05:39:21;;;;;;;8.93;2.20;;;6.50;99.90;;;;;;5054449;28;20471;-83
2022/01/22 05:41:47;;;;;;;12.70;2.22;;;5.90;99.90;;;;;;5054485;28;20029;-83
2022/01/22 05:44:14;;;;;;;6.80;1.60;;;6.40;99.90;;;;;;5037826;28;20102;-86
2022/01/22 05:46:39;;;;;;;8.68;1.77;;;5.90;99.90;;;;;;5037634;28;20037;-84
2022/01/22 05:49:06;;;;;;;8.60;1.90;;;6.00;99.90;;;;;;5037805;28;20394;-83
2022/01/22 05:51:32;;;;;;;;;;;5.90;99.90;;;;;;5038059;28;20044;-83
2022/01/22 05:54:32;;;;;;;8.23;1.80;;;5.90;99.90;;;;;;5054599;28;19916;-87
2022/01/22 05:59:44;;;;;;;8.45;2.00;;;5.90;99.90;;;;;;5058730;28;20040;-83
2022/01/22 06:02:15;;;;;;;6.78;1.80;;;5.90;99.90;;;;;;5074378;28;20032;-85
2022/01/22 06:04:41;;;;;;;11.07;2.05;;;5.90;99.90;;;;;;5074382;28;20048;-83
2022/01/22 06:07:08;;;;;;;8.00;2.00;;;5.90;99.90;;;;;;5074609;28;20040;-85
2022/01/22 06:09:37;;;;;;;13.40;2.38;;;5.90;99.90;;;;;;5052929;28;20075;-84
2022/01/22 06:14:32;;;;;;;8.50;2.53;;;5.90;99.90;;;;;;5036083;28;20063;-83
2022/01/22 06:16:58;;;;;;;7.88;2.17;;;6.20;99.90;;;;;;5054017;28;20044;-83
2022/01/22 06:19:24;;;;;;;10.95;2.35;;;5.90;99.90;;;;;;5054293;28;20127;-84
2022/01/22 06:21:51;;;;;;;11.38;2.30;;;5.90;99.90;;;;;;5037822;28;20077;-83
2022/01/22 06:24:18;;;;;;;14.70;2.50;;;6.00;99.90;;;;;;5054118;28;20087;-88
2022/01/22 06:26:44;;;;;;;14.23;2.25;;;5.80;99.90;;;;;;5037639;28;20131;-83
2022/01/22 06:29:09;;;;;;;9.18;2.28;;;5.90;99.90;;;;;;5033654;28;20140;-84
2022/01/22 06:31:35;;;;;;;9.77;2.83;;;5.90;99.90;;;;;;5033610;28;20045;-83
2022/01/22 06:34:02;;;;;;;10.13;1.98;;;6.50;99.90;;;;;;5034414;28;20049;-84
2022/01/22 06:36:29;;;;;;;11.35;1.90;;;5.90;99.90;;;;;;5052151;28;20045;-83
2022/01/22 06:38:59;;;;;;;6.53;1.85;;;6.00;99.90;;;;;;5054489;28;20079;-83
2022/01/22 06:44:10;;;;;;;10.73;2.00;;;5.90;99.90;;;;;;5059664;28;20052;-87
2022/01/22 06:46:36;;;;;;;9.25;1.80;;;5.80;99.90;;;;;;5057222;28;20245;-83
2022/01/22 06:49:02;;;;;;;8.45;2.20;;;5.90;99.90;;;;;;5057845;28;20149;-83
2022/01/22 06:51:28;;;;;;;;;;;5.90;99.90;;;;;;5074408;28;20036;-83
2022/01/22 06:53:54;;;;;;;9.32;2.13;;;5.90;99.90;;;;;;5057627;28;19916;-85
2022/01/22 06:56:21;;;;;;;9.43;2.00;;;5.90;99.90;;;;;;5073721;28;20044;-87
2022/01/22 06:58:48;;;;;;;9.30;2.10;;;5.90;99.90;;;;;;5073791;28;20509;-84
2022/01/22 07:01:14;;;;;;;10.82;2.00;;;6.20;99.90;;;;;;5053621;28;20040;-83
2022/01/22 07:03:40;;;;;;;;;;;5.90;99.90;;;;;;5037439;28;20040;-83
2022/01/22 07:06:06;;;;;;;11.20;1.95;;;6.30;99.90;;;;;;5060966;28;19916;-83
2022/01/22 07:08:31;;;;;;;10.63;2.35;;;5.80;99.90;;;;;;5073572;28;20037;-83
2022/01/22 07:10:57;;;;;;;11.27;2.63;;;5.90;99.90;;;;;;5056903;28;20040;-83
2022/01/22 07:13:23;;;;;;;13.88;3.20;;;5.80;99.90;;;;;;5056950;28;20132;-88
2022/01/22 07:15:49;;;;;;;9.48;2.63;;;5.90;99.90;;;;;;5073228;28;20036;-83
2022/01/22 07:18:14;;;;;;;9.40;2.60;;;5.90;99.90;;;;;;5040680;28;20044;-84
2022/01/22 07:20:42;;;;;;;11.48;2.40;;;6.80;99.90;;;;;;5073379;28;20151;-83
2022/01/22 07:23:53;;;;;;;10.75;3.08;;;5.80;99.90;;;;;;5073639;28;20041;-84
2022/01/22 07:26:07;;;;;;;6.55;2.75;;;5.80;99.90;;;;;;5072989;28;20067;-84
2022/01/22 07:28:34;;;;;;;6.88;2.35;;;5.90;99.90;;;;;;5069734;28;20089;-83
2022/01/22 07:31:00;;;;;;;;;;;6.60;99.90;;;;;;5063595;28;20132;-85
2022/01/22 07:33:28;;;;;;;13.73;2.50;;;5.80;99.90;;;;;;5055912;28;20318;-85
2022/01/22 07:35:54;;;;;;;9.20;2.40;;;5.90;99.90;;;;;;5067622;28;20373;-83
2022/01/22 07:38:21;;;;;;;9.55;2.20;;;6.10;99.90;;;;;;5045946;28;20097;-83
2022/01/22 07:40:47;;;;;;;7.25;2.00;;;5.80;99.90;;;;;;5055833;28;20101;-83
2022/01/22 07:43:14;;;;;;;10.75;2.30;;;5.80;99.90;;;;;;5070129;28;20394;-83
2022/01/22 07:45:40;;;;;;;8.52;2.30;;;6.00;99.90;;;;;;5045496;28;20742;-83
2022/01/22 07:48:06;;;;;;;;;;;6.10;99.90;;;;;;5051527;28;20395;-84
2022/01/22 07:50:32;;;;;;;9.10;2.15;;;6.70;99.90;;;;;;5045917;28;19916;-84
2022/01/22 07:52:58;;;;;;;14.30;2.30;;;6.10;99.90;;;;;;5073112;28;20071;-83
2022/01/22 07:55:24;;;;;;;9.55;1.92;;;5.90;99.90;;;;;;5032882;28;20123;-84
2022/01/22 07:57:50;;;;;;;9.45;2.00;;;5.90;99.90;;;;;;5035997;28;20072;-83
2022/01/22 08:00:16;;;;;;;;;;;5.90;99.90;;;;;;5036202;28;20450;-83
2022/01/22 08:02:46;;;;;;;9.03;2.50;;;5.90;99.90;;;;;;5035956;28;19960;-84
2022/01/22 08:05:12;;;;;;;10.15;3.13;;;5.80;99.90;;;;;;5046975;28;20082;-85
2022/01/22 08:07:39;;;;;;;11.02;2.88;;;5.80;99.90;;;;;;5071505;28;20127;-85
2022/01/22 08:10:08;;;;;;;9.35;2.38;;;5.90;99.90;;;;;;5072048;28;20410;-84
2022/01/22 08:12:35;;;;;;;4.57;2.13;;;5.90;99.90;;;;;;5072280;28;20479;-84
2022/01/22 08:15:01;;;;;;;11.98;2.25;;;6.10;99.90;;;;;;5033273;28;20140;-85
2022/01/22 08:17:27;;;;;;;10.23;2.20;;;5.90;99.90;;;;;;5052782;28;20518;-88
2022/01/22 08:19:53;;;;;;;8.13;2.25;;;6.00;99.90;;;;;;5072378;28;20044;-83
2022/01/22 08:22:19;;;;;;;6.20;2.10;;;5.90;99.90;;;;;;5055817;28;20040;-83
2022/01/22 08:24:45;;;;;;;12.05;2.20;;;6.30;99.90;;;;;;5051367;28;20504;-84
2022/01/22 08:29:56;;;;;;;7.47;2.17;;;5.90;99.90;;;;;;5051813;28;20125;-83
2022/01/22 08:38:04;;;;;;;5.10;2.17;;;6.10;99.90;;;;;;5058149;28;20048;-85
2022/01/22 08:40:30;;;;;;;5.72;1.60;;;6.30;99.90;;;;;;5038340;28;20121;-84
2022/01/22 08:42:56;;;;;;;7.45;1.83;;;5.90;99.90;;;;;;5055483;28;20363;-83
2022/01/22 08:45:21;;;;;;;5.10;1.52;;;5.90;99.90;;;;;;5051594;28;20467;-84
2022/01/22 08:47:47;;;;;;;5.57;1.50;;;5.90;99.90;;;;;;5038717;28;20044;-83
2022/01/22 08:50:13;;;;;;;6.75;1.60;;;5.90;99.90;;;;;;5055135;28;20071;-83
2022/01/22 08:52:38;;;;;;;6.68;1.63;;;6.40;99.90;;;;;;5071360;28;20169;-83
2022/01/22 08:55:05;;;;;;;6.32;1.60;;;6.20;99.90;;;;;;5054355;28;20047;-86
2022/01/22 08:57:31;;;;;;;5.80;1.83;;;5.90;99.90;;;;;;5071120;28;20431;-86
2022/01/22 08:59:57;;;;;;;4.15;1.80;;;5.90;99.90;;;;;;5071084;28;20076;-86
2022/01/22 09:02:23;;;;;;;8.35;1.88;;;5.90;99.90;;;;;;5054746;28;20043;-86
2022/01/22 09:04:49;;;;;;;7.28;1.70;;;6.00;99.90;;;;;;5035397;28;20040;-87
2022/01/22 09:07:15;;;;;;;4.72;1.52;;;6.00;99.90;;;;;;5025508;28;20045;-85
2022/01/22 09:09:40;;;;;;;9.43;1.95;;;6.00;99.90;;;;;;5054533;28;20040;-82
2022/01/22 09:12:08;;;;;;;3.20;1.58;;;6.00;99.90;;;;;;5068184;28;20037;-86
2022/01/22 09:14:36;;;;;;;5.03;1.65;;;6.00;99.90;;;;;;5034455;28;20048;-87
2022/01/22 09:17:02;;;;;;;5.85;1.67;;;6.40;99.90;;;;;;5020144;28;20045;-86
2022/01/22 09:19:33;;;;;;;8.02;1.70;;;6.00;99.90;;;;;;5051762;28;20118;-88
2022/01/22 09:22:01;;;;;;;5.90;1.70;;;6.10;99.90;;;;;;5033430;28;20048;-86
2022/01/22 09:24:27;;;;;;;4.15;1.70;;;6.90;99.90;;;;;;5054231;28;20075;-86
2022/01/22 09:26:53;;;;;;;6.03;1.40;;;6.20;99.90;;;;;;5066674;28;20068;-86
2022/01/22 09:29:20;;;;;;;6.78;1.20;;;6.10;99.90;;;;;;5031722;28;20627;-86
2022/01/22 09:31:46;;;;;;;2.78;1.40;;;6.20;99.90;;;;;;5053536;28;20142;-86
2022/01/22 09:34:13;;;;;;;4.65;1.52;;;6.20;99.90;;;;;;5046466;28;20052;-86
2022/01/22 09:36:39;;;;;;;8.77;1.52;;;6.20;99.90;;;;;;5054602;28;20046;-86
2022/01/22 09:39:05;;;;;;;7.40;1.70;;;6.10;99.90;;;;;;5054308;28;20045;-86
2022/01/22 09:41:32;;;;;;;8.23;1.55;;;6.30;99.90;;;;;;5065388;28;20387;-88
2022/01/22 09:43:58;;;;;;;4.35;1.27;;;6.30;99.90;;;;;;5050966;28;20040;-88
2022/01/22 09:46:26;;;;;;;8.27;1.52;;;6.10;99.90;;;;;;5063289;28;20037;-86
2022/01/22 09:48:52;;;;;;;7.63;2.03;;;6.10;99.90;;;;;;5037896;28;20170;-86
2022/01/22 09:51:18;;;;;;;;;;;6.60;99.90;;;;;;5051428;28;20088;-87
2022/01/22 09:53:45;;;;;;;3.08;1.33;;;6.90;99.90;;;;;;5062750;28;19955;-85
2022/01/22 09:56:12;;;;;;;6.45;1.90;;;6.10;99.90;;;;;;5026332;28;20360;-85
2022/01/22 09:58:38;;;;;;;4.10;1.52;;;6.10;99.90;;;;;;5049840;28;20071;-86
2022/01/22 10:01:29;;;;;;;9.85;2.40;;;6.20;99.90;;;;;;5066119;28;20037;-85
2022/01/22 10:03:58;;;;;;;7.85;2.17;;;6.10;99.90;;;;;;5052513;28;20732;-87
2022/01/22 10:06:29;;;;;;;6.38;2.10;;;6.20;99.90;;;;;;5059058;28;20078;-88
2022/01/22 10:09:07;;;;;;;11.32;2.08;;;6.20;99.90;;;;;;5056882;28;20465;-86
2022/01/22 10:11:33;;;;;;;6.75;1.90;;;6.20;99.90;;;;;;5056543;28;20076;-87
2022/01/22 10:13:59;;;;;;;6.90;2.22;;;6.20;99.90;;;;;;5045188;28;20036;-84
2022/01/22 10:16:29;;;;;;;;;;;6.20;99.90;;;;;;5069173;28;20075;-84
2022/01/22 10:19:13;;;;;;;8.27;2.22;;;6.20;99.90;;;;;;5057247;28;19924;-84
2022/01/22 10:21:57;;;;;;;9.32;2.40;;;6.20;99.90;;;;;;5055722;28;20124;-84
2022/01/22 10:24:39;;;;;;;8.95;2.80;;;6.30;99.90;;;;;;5038124;28;20094;-84
2022/01/22 10:27:39;;;;;;;11.65;2.90;;;6.30;99.90;;;;;;5038492;28;20044;-84
2022/01/22 10:30:15;;;;;;;8.02;3.08;;;6.30;99.90;;;;;;5053858;28;20139;-86
2022/01/22 10:32:57;;;;;;;10.35;2.90;;;6.20;99.90;;;;;;5058773;28;20479;-84
2022/01/22 10:35:26;;;;;;;10.43;2.92;;;6.50;99.90;;;;;;5058203;28;20044;-84
2022/01/22 10:37:57;;;;;;;12.35;3.33;;;6.30;99.90;;;;;;5074235;28;20047;-84
2022/01/22 10:40:29;;;;;;;9.57;2.80;;;6.40;99.90;;;;;;5072556;28;20074;-84
2022/01/22 10:43:20;;;;;;;12.10;3.10;;;6.40;99.90;;;;;;5066792;28;20226;-84
2022/01/22 10:48:54;;;;;;;14.77;2.90;;;6.80;99.90;;;;;;5060307;28;20095;-83
2022/01/22 10:51:20;;;;;;;10.77;2.40;;;6.50;99.90;;;;;;5067769;28;20037;-84
2022/01/22 10:53:52;;;;;;;;;;;7.20;99.90;;;;;;5064848;28;20053;-84
2022/01/22 10:56:21;;;;;;;10.90;2.80;;;6.60;99.90;;;;;;5039802;28;19917;-85
2022/01/22 10:58:54;;;;;;;10.65;3.20;;;6.70;99.90;;;;;;5046855;28;20040;-85
2022/01/22 11:01:20;;;;;;;12.93;3.42;;;6.60;99.90;;;;;;5072796;28;20464;-85
2022/01/22 11:03:47;;;;;;;15.20;3.30;;;6.60;99.90;;;;;;5058200;28;20041;-84
2022/01/22 11:06:29;;;;;;;11.63;3.20;;;6.70;99.90;;;;;;5050467;28;20044;-84
2022/01/22 11:08:55;;;;;;;11.93;2.80;;;6.60;99.90;;;;;;5055941;28;20048;-86
2022/01/22 11:11:22;;;;;;;;;;;6.80;99.90;;;;;;5052305;28;20041;-87
2022/01/22 11:13:48;;;;;;;12.25;2.90;;;6.70;99.90;;;;;;5047792;28;19967;-86
2022/01/22 11:16:17;;;;;;;14.07;3.25;;;6.70;99.90;;;;;;5070480;28;20079;-87
2022/01/22 11:18:46;;;;;;;8.95;2.50;;;7.10;99.90;;;;;;5053768;28;20041;-87
2022/01/22 11:21:12;;;;;;;14.40;2.67;;;6.90;99.90;;;;;;5054708;28;20049;-86
2022/01/22 11:23:38;;;;;;;13.40;3.20;;;6.70;99.90;;;;;;5020712;28;20037;-88
2022/01/22 11:26:05;;;;;;;;;;;6.70;99.90;;;;;;5049178;28;20044;-89
2022/01/22 11:28:31;;;;;;;14.40;2.87;;;6.70;99.90;;;;;;5050491;28;20358;-89
2022/01/22 11:30:59;;;;;;;12.00;3.45;;;6.70;99.90;;;;;;5056233;28;20056;-89
2022/01/22 11:33:25;;;;;;;10.60;3.28;;;6.70;99.90;;;;;;5047584;28;20064;-89
2022/01/22 11:36:03;;;;;;;12.05;3.15;;;6.70;99.90;;;;;;5025245;28;20072;-88
2022/01/22 11:38:38;;;;;;;11.57;3.05;;;6.70;99.90;;;;;;5067911;28;20072;-89
2022/01/22 11:41:14;;;;;;;13.50;3.03;;;6.70;99.90;;;;;;5044945;28;20510;-89
2022/01/22 11:44:02;;;;;;;10.27;3.00;;;6.70;99.90;;;;;;5053997;28;20041;-91
2022/01/22 11:46:34;;;;;;;11.23;2.80;;;6.60;99.90;;;;;;5060719;28;20079;-88
2022/01/22 11:49:18;;;;;;;15.13;3.17;;;6.70;99.90;;;;;;5040898;28;20088;-87
2022/01/22 11:51:50;;;;;;;9.43;2.63;;;6.60;99.90;;;;;;5068867;28;20074;-88
2022/01/22 11:54:18;;;;;;;16.45;3.20;;;6.60;99.90;;;;;;5053156;28;20374;-86
2022/01/22 11:56:45;;;;;;;12.65;3.20;;;6.60;99.90;;;;;;5050225;28;20120;-91
2022/01/22 11:59:21;;;;;;;10.18;2.63;;;6.60;99.90;;;;;;5070109;28;20048;-87
2022/01/22 12:04:16;;;;;;;10.63;2.85;;;6.70;99.90;;;;;;5069382;28;20386;-88
2022/01/22 12:07:01;;;;;;;15.25;3.78;;;6.80;99.90;;;;;;5037695;28;20430;-92
2022/01/22 12:09:30;;;;;;;13.18;3.40;;;6.70;99.90;;;;;;5059717;28;20033;-87
2022/01/22 12:14:48;;;;;;;14.13;3.13;;;6.70;99.90;;;;;;5064514;28;20071;-88
2022/01/22 12:17:33;;;;;;;9.85;2.75;;;6.80;99.90;;;;;;5072467;28;20386;-87
2022/01/22 12:22:34;;;;;;;10.52;2.50;;;6.90;99.90;;;;;;5056090;28;20643;-87
2022/01/22 12:25:03;;;;;;;12.45;3.05;;;6.60;99.90;;;;;;5063918;28;20474;-87
2022/01/22 12:27:49;;;;;;;12.38;3.55;;;6.70;99.90;;;;;;5071009;28;20040;-87
2022/01/22 12:30:31;;;;;;;14.60;3.72;;;6.70;99.90;;;;;;5060370;28;20513;-87
2022/01/22 12:32:59;;;;;;;13.77;3.35;;;6.60;99.90;;;;;;5054840;28;20044;-87
2022/01/22 12:35:39;;;;;;;13.32;3.80;;;6.60;99.90;;;;;;5071801;28;20043;-88
2022/01/22 12:38:29;;;;;;;23.30;4.28;;;6.70;99.90;;;;;;5055384;28;20053;-88
2022/01/22 12:41:29;;;;;;;13.05;4.10;;;6.60;99.90;;;;;;5055091;28;20059;-87
2022/01/22 12:44:07;;;;;;;15.25;4.10;;;6.60;99.90;;;;;;5054764;28;20044;-89
2022/01/22 12:46:35;;;;;;;18.05;4.32;;;6.60;99.90;;;;;;5069397;28;20037;-87
2022/01/22 12:49:03;;;;;;;11.25;3.85;;;6.60;99.90;;;;;;5064575;28;20043;-91
2022/01/22 12:51:28;;;;;;;13.15;4.40;;;6.60;99.90;;;;;;5035390;28;20040;-88
2022/01/22 12:53:54;;;;;;;16.38;4.72;;;6.60;99.90;;;;;;5034886;28;20250;-80
2022/01/22 12:56:49;;;;;;;13.10;4.80;;;6.90;99.90;;;;;;5050431;28;20094;-81
2022/01/22 12:59:11;;;;;;;14.98;5.00;;;6.60;99.90;;;;;;5054414;28;20463;-80
2022/01/22 13:01:42;;;;;;;22.75;5.35;;;6.60;99.90;;;;;;5069420;28;20047;-80
2022/01/22 13:04:09;;;;;;;15.90;5.68;;;6.60;99.90;;;;;;5069323;28;20762;-80
2022/01/22 13:06:49;;;;;;;17.15;5.57;;;6.60;99.90;;;;;;5070124;28;20052;-81
2022/01/22 13:09:15;;;;;;;17.70;5.15;;;6.60;99.90;;;;;;5069839;28;20619;-80
2022/01/22 13:11:46;;;;;;;20.08;5.32;;;6.70;99.90;;;;;;5069983;28;20094;-80
2022/01/22 13:14:32;;;;;;;19.13;6.45;;;6.80;99.90;;;;;;5068610;28;20051;-86
2022/01/22 13:16:58;;;;;;;16.75;4.95;;;6.80;99.90;;;;;;5043681;28;20550;-80
2022/01/22 13:19:28;;;;;;;16.05;4.63;;;6.60;99.90;;;;;;5056309;28;20084;-81
2022/01/22 13:21:57;;;;;;;19.17;5.10;;;6.60;99.90;;;;;;5049221;28;20127;-82
2022/01/22 13:24:25;;;;;;;14.18;5.32;;;6.70;99.90;;;;;;5049236;28;20045;-81
2022/01/22 13:27:02;;;;;;;19.83;5.03;;;6.60;99.90;;;;;;5050329;28;20076;-80
2022/01/22 13:29:33;;;;;;;14.00;4.57;;;6.60;99.90;;;;;;5048724;28;20084;-80
2022/01/22 13:32:17;;;;;;;15.90;4.43;;;6.60;99.90;;;;;;5048619;28;20044;-80
2022/01/22 13:48:50;;;;;;;18.00;4.40;;;6.50;99.90;;;;;;5073014;28;20131;-81
2022/01/22 13:51:16;;;;;;;18.95;4.22;;;6.50;99.90;;;;;;5064588;28;20078;-80
2022/01/22 13:53:45;;;;;;;11.57;3.75;;;6.60;99.90;;;;;;5073643;28;20044;-81
2022/01/22 13:56:12;;;;;;;17.75;4.50;;;6.50;99.90;;;;;;5053161;28;20052;-90
2022/01/22 13:58:38;;;;;;;13.82;3.85;;;6.60;99.90;;;;;;5035249;28;20037;-86
2022/01/22 14:01:31;;;;;;;13.30;3.85;;;6.60;99.90;;;;;;5054037;28;20490;-86
2022/01/22 14:04:08;;;;;;;17.67;3.67;;;6.60;99.90;;;;;;5060487;28;20048;-84
2022/01/22 14:06:34;;;;;;;9.18;3.55;;;6.60;99.90;;;;;;5050996;28;20048;-85
2022/01/22 14:09:15;;;;;;;11.52;2.88;;;6.70;99.90;;;;;;5029842;28;20490;-87
2022/01/22 14:12:02;;;;;;;10.52;2.95;;;6.50;99.90;;;;;;5068930;28;20045;-86
2022/01/22 14:14:31;;;;;;;11.70;3.03;;;6.60;99.90;;;;;;5042871;28;20127;-85
2022/01/22 14:17:09;;;;;;;14.82;2.70;;;6.50;99.90;;;;;;5040430;28;20032;-85
2022/01/22 14:19:35;;;;;;;14.18;3.08;;;6.50;99.90;;;;;;5023330;28;20395;-85
2022/01/22 14:22:00;;;;;;;10.50;2.97;;;6.50;99.90;;;;;;5053231;28;20045;-87
2022/01/22 14:24:30;;;;;;;13.10;3.28;;;6.50;99.90;;;;;;5027115;28;20119;-87
2022/01/22 14:26:56;;;;;;;16.92;3.47;;;6.50;99.90;;;;;;5033776;28;20048;-87
2022/01/22 14:29:22;;;;;;;10.05;3.05;;;6.50;99.90;;;;;;5065441;28;20056;-85
2022/01/22 14:31:50;;;;;;;15.75;2.97;;;6.50;99.90;;;;;;5023540;28;20044;-86
2022/01/22 14:34:36;;;;;;;11.70;3.50;;;6.40;99.90;;;;;;5056499;28;20040;-86
2022/01/22 14:37:04;;;;;;;13.60;3.70;;;6.50;99.90;;;;;;5065602;28;20047;-86
2022/01/22 14:45:31;;;;;;;16.58;3.65;;;6.40;99.90;;;;;;5058307;28;20053;-86
2022/01/22 14:47:59;;;;;;;12.25;4.00;;;6.40;99.90;;;;;;5053747;28;20048;-89
2022/01/22 14:50:29;;;;;;;13.93;3.55;;;6.50;99.90;;;;;;5054574;28;20060;-85
2022/01/22 14:53:00;;;;;;;17.52;3.70;;;6.40;99.90;;;;;;5068480;28;20134;-88
2022/01/22 14:55:27;;;;;;;13.57;3.30;;;6.90;99.90;;;;;;5040174;28;20191;-85
2022/01/22 14:57:54;;;;;;;18.42;4.03;;;6.60;99.90;;;;;;5050376;28;20049;-86
2022/01/22 15:00:20;;;;;;;13.68;3.70;;;6.40;99.90;;;;;;5055589;28;20047;-86
2022/01/22 15:02:47;;;;;;;13.82;3.00;;;6.40;99.90;;;;;;5037466;28;20033;-85
2022/01/22 15:05:14;;;;;;;13.20;3.33;;;7.30;99.90;;;;;;5065240;28;20048;-87
2022/01/22 15:07:43;;;;;;;10.57;2.75;;;6.60;99.90;;;;;;5066272;28;20068;-86
2022/01/22 15:10:10;;;;;;;10.73;2.90;;;7.10;99.90;;;;;;5036828;28;20423;-87
2022/01/22 15:12:37;;;;;;;14.05;3.20;;;6.60;99.90;;;;;;5050780;28;20098;-86